Time;durP1;ratioP1;P1;durP2;ratioP2;P2;SDS_P1;SDS_P2;PMS_P1;PMS_P2;Temp;Humidity;BMP_temperature;BMP_pressure;BME280_temperature;BME280_humidity;BME280_pressure;Samples;Min_cycle;Max_cycle;Signal;HPM_P1;HPM_P2
2022/12/20 00:00:52;;;;;;;9.55;7.10;;;;;;;14.75;44.31;94029.00;4970586;28;20062;-90
2022/12/20 00:03:18;;;;;;;9.30;6.85;;;;;;;14.70;44.57;94016.09;4970481;28;20122;-89
2022/12/20 00:05:44;;;;;;;8.93;6.60;;;;;;;14.68;44.83;94021.25;4982412;28;20038;-89
2022/12/20 00:08:09;;;;;;;8.20;6.40;;;;;;;14.65;44.74;94003.16;4988213;28;20116;-89
2022/12/20 00:10:36;;;;;;;10.10;6.70;;;;;;;14.66;44.34;94010.09;4957687;28;20042;-89
2022/12/20 00:13:01;;;;;;;10.07;7.10;;;;;;;14.66;44.50;93998.44;4989605;28;20065;-89
2022/12/20 00:15:26;;;;;;;8.75;6.07;;;;;;;14.67;44.58;93999.97;4972712;28;20481;-90
2022/12/20 00:17:52;;;;;;;9.05;6.60;;;;;;;14.67;44.77;93998.00;4954543;28;20042;-90
2022/12/20 00:20:17;;;;;;;9.75;6.47;;;;;;;14.69;44.76;93994.78;4989344;28;20050;-89
2022/12/20 00:22:43;;;;;;;9.77;6.32;;;;;;;14.67;44.65;93987.09;4973371;28;20085;-89
2022/12/20 00:25:09;;;;;;;8.57;6.32;;;;;;;14.70;44.64;94007.94;4972851;28;20371;-89
2022/12/20 00:27:34;;;;;;;8.73;6.43;;;;;;;14.67;44.81;94013.56;4973305;28;20045;-89
2022/12/20 00:29:59;;;;;;;8.93;6.80;;;;;;;14.67;44.94;94002.69;4973470;28;20045;-89
2022/12/20 00:32:26;;;;;;;9.10;6.47;;;;;;;14.65;44.75;94008.59;4956219;28;20429;-89
2022/12/20 00:34:51;;;;;;;8.82;5.78;;;;;;;14.64;44.72;94009.06;4957569;28;20372;-89
2022/12/20 00:37:16;;;;;;;8.73;6.65;;;;;;;14.63;44.96;94013.00;4956497;28;20501;-90
2022/12/20 00:39:42;;;;;;;8.93;5.70;;;;;;;14.66;44.88;94012.06;4973337;28;20054;-89
2022/12/20 00:42:07;;;;;;;9.30;6.75;;;;;;;14.71;44.34;94008.69;4972286;28;20071;-89
2022/12/20 00:44:33;;;;;;;10.40;5.97;;;;;;;14.68;44.60;94010.38;4956612;28;20038;-90
2022/12/20 00:46:58;;;;;;;7.28;6.05;;;;;;;14.67;44.56;94017.03;4989736;28;20390;-89
2022/12/20 00:49:23;;;;;;;10.13;7.05;;;;;;;14.68;44.58;94025.94;4988759;28;20034;-90
2022/12/20 00:51:49;;;;;;;7.40;5.70;;;;;;;14.68;44.82;94017.78;4956646;28;20097;-90
2022/12/20 00:54:15;;;;;;;8.20;5.60;;;;;;;14.68;44.60;94021.25;4969540;28;20102;-89
2022/12/20 00:56:41;;;;;;;7.78;6.03;;;;;;;14.67;44.77;94016.28;4991699;28;20401;-89
2022/12/20 00:59:06;;;;;;;7.55;5.50;;;;;;;14.70;44.77;94016.09;4983635;28;20072;-89
2022/12/20 01:01:33;;;;;;;8.20;6.22;;;;;;;14.71;44.64;94025.75;4989126;28;20461;-89
2022/12/20 01:03:58;;;;;;;7.20;5.70;;;;;;;14.69;44.53;94011.13;4988789;28;20034;-89
2022/12/20 01:06:24;;;;;;;8.98;6.03;;;;;;;14.70;44.82;94018.81;4987998;28;20057;-89
2022/12/20 01:08:50;;;;;;;7.30;5.55;;;;;;;14.68;44.62;94020.50;4983190;28;20454;-89
2022/12/20 01:11:20;;;;;;;7.15;5.50;;;;;;;14.68;44.93;94018.53;4966720;28;20047;-89
2022/12/20 01:13:47;;;;;;;6.82;5.10;;;;;;;14.66;45.03;94007.38;4983449;28;20118;-90
2022/12/20 01:16:28;;;;;;;6.47;4.97;;;;;;;14.65;44.74;94005.13;4950699;28;20039;-89
2022/12/20 01:18:56;;;;;;;8.27;5.55;;;;;;;14.64;44.82;94009.81;4970002;28;20418;-89
2022/12/20 01:21:22;;;;;;;8.68;5.20;;;;;;;14.66;44.84;94010.09;4982155;28;20137;-89
2022/12/20 01:23:48;;;;;;;7.55;5.38;;;;;;;14.67;44.59;94003.44;4951581;28;20430;-90
2022/12/20 01:26:15;;;;;;;7.80;4.97;;;;;;;14.69;44.78;93992.81;4950728;28;20043;-90
2022/12/20 01:28:42;;;;;;;7.30;4.82;;;;;;;14.69;44.83;93987.38;4983482;28;20550;-89
2022/12/20 01:31:08;;;;;;;7.30;5.18;;;;;;;14.70;44.93;93985.41;4982850;28;20039;-90
2022/12/20 01:33:34;;;;;;;5.88;4.85;;;;;;;14.70;44.54;93980.72;4983817;28;20043;-90
2022/12/20 01:36:01;;;;;;;5.85;4.95;;;;;;;14.73;44.46;93979.75;4951233;28;20683;-90
2022/12/20 01:38:26;;;;;;;7.30;5.18;;;;;;;14.71;44.73;93971.34;4999496;28;20039;-89
2022/12/20 01:40:52;;;;;;;6.85;4.85;;;;;;;14.71;44.99;93971.34;5036090;28;20507;-89
2022/12/20 01:43:17;;;;;;;5.60;4.60;;;;;;;14.68;44.65;93972.28;4991092;28;20041;-89
2022/12/20 01:45:43;;;;;;;6.60;4.72;;;;;;;14.68;44.69;93979.69;4977551;28;20046;-90
2022/12/20 01:48:08;;;;;;;6.63;4.43;;;;;;;14.68;44.41;93977.72;4971698;28;20039;-90
2022/12/20 01:50:34;;;;;;;7.95;4.93;;;;;;;14.69;44.54;93973.78;4955124;28;20041;-89
2022/12/20 01:53:01;;;;;;;5.57;4.57;;;;;;;14.70;44.69;93979.97;4955799;28;20662;-89
2022/12/20 01:55:26;;;;;;;5.00;4.25;;;;;;;14.68;44.41;93991.31;4951952;28;20060;-90
2022/12/20 01:57:57;;;;;;;6.18;4.55;;;;;;;14.71;44.53;93997.78;4987638;28;20124;-90
2022/12/20 02:00:24;;;;;;;6.95;4.60;;;;;;;14.66;44.91;94001.19;4952083;28;20049;-90
2022/12/20 02:02:49;;;;;;;5.18;4.13;;;;;;;14.68;44.48;93996.75;4984205;28;20039;-89
2022/12/20 02:05:17;;;;;;;5.82;4.43;;;;;;;14.66;44.85;93988.31;4979397;28;20775;-89
2022/12/20 02:07:42;;;;;;;6.60;4.72;;;;;;;14.68;45.08;93982.41;5016750;28;20042;-89
2022/12/20 02:10:09;;;;;;;6.43;4.43;;;;;;;14.70;44.59;93986.16;4983113;28;20706;-89
2022/12/20 02:12:39;;;;;;;5.05;3.97;;;;;;;14.67;45.15;93989.06;4987784;28;20046;-89
2022/12/20 02:15:27;;;;;;;5.45;3.97;;;;;;;14.68;44.78;93994.03;4971457;28;20041;-89
2022/12/20 02:17:59;;;;;;;5.10;3.83;;;;;;;14.70;44.75;93993.56;4989725;28;20092;-89
2022/12/20 02:20:39;;;;;;;5.28;4.15;;;;;;;14.69;44.72;93995.53;4970849;28;20053;-90
2022/12/20 02:23:44;;;;;;;4.68;3.60;;;;;;;14.70;44.64;93977.25;5006854;28;20065;-89
2022/12/20 02:26:16;;;;;;;6.38;3.78;;;;;;;14.68;44.72;93966.84;4992403;28;20102;-89
2022/12/20 02:29:01;;;;;;;6.10;4.05;;;;;;;14.65;44.88;93965.06;4987313;28;20092;-89
2022/12/20 02:31:31;;;;;;;5.97;4.32;;;;;;;14.66;44.71;93958.38;5002891;28;20115;-89
2022/12/20 02:33:57;;;;;;;4.57;3.83;;;;;;;14.67;44.86;93970.03;4970956;28;20049;-90
2022/12/20 02:36:24;;;;;;;6.10;4.43;;;;;;;14.71;44.81;93976.78;4954324;28;20106;-89
2022/12/20 02:38:50;;;;;;;5.40;3.88;;;;;;;14.65;44.85;93977.91;4971166;28;20101;-89
2022/12/20 02:41:22;;;;;;;5.50;3.65;;;;;;;14.70;44.96;93985.41;4954415;28;20050;-89
2022/12/20 02:46:37;;;;;;;4.75;3.78;;;;;;;14.62;44.98;93979.59;4968339;28;20057;-90
2022/12/20 02:49:06;;;;;;;5.72;3.35;;;;;;;14.65;45.33;93977.91;4983484;28;20035;-89
2022/12/20 02:51:31;;;;;;;5.47;3.80;;;;;;;14.63;44.76;93980.34;4971119;28;20058;-89
2022/12/20 02:53:57;;;;;;;4.60;3.40;;;;;;;14.63;44.69;93975.66;4971177;28;20038;-89
2022/12/20 02:56:32;;;;;;;4.18;3.25;;;;;;;14.70;44.45;93980.72;4986579;28;20051;-90
2022/12/20 02:59:05;;;;;;;4.50;3.30;;;;;;;14.66;44.91;93987.56;4984264;28;20189;-90
2022/12/20 03:01:39;;;;;;;4.95;3.42;;;;;;;14.62;45.16;93995.16;4982735;28;20113;-89
2022/12/20 03:04:05;;;;;;;5.25;3.40;;;;;;;14.65;45.05;93978.66;4970159;28;20397;-89
2022/12/20 03:06:30;;;;;;;4.97;3.45;;;;;;;14.66;44.98;93972.00;4968278;28;20050;-89
2022/12/20 03:08:55;;;;;;;5.00;3.65;;;;;;;14.67;44.70;93964.59;5000442;28;20045;-90
2022/12/20 03:11:21;;;;;;;4.95;3.60;;;;;;;14.66;44.95;93957.63;4950162;28;20067;-89
2022/12/20 03:13:46;;;;;;;4.82;3.50;;;;;;;14.65;44.80;93958.88;4987305;28;20073;-90
2022/12/20 03:16:12;;;;;;;5.03;3.55;;;;;;;14.67;44.60;93967.31;4974871;28;20042;-89
2022/12/20 03:18:37;;;;;;;4.70;3.40;;;;;;;14.66;45.16;93966.56;4967246;28;20051;-90
2022/12/20 03:21:03;;;;;;;4.32;3.15;;;;;;;14.64;45.05;93960.09;4976761;28;20050;-89
2022/12/20 03:23:28;;;;;;;4.88;3.45;;;;;;;14.68;44.45;93953.22;4970487;28;20038;-90
2022/12/20 03:25:54;;;;;;;4.88;3.55;;;;;;;14.67;44.99;93959.88;4970210;28;20372;-89
2022/12/20 03:28:19;;;;;;;4.40;3.25;;;;;;;14.63;45.17;93951.16;4986402;28;20364;-90
2022/12/20 03:30:45;;;;;;;4.68;3.55;;;;;;;14.60;45.35;93960.28;5002985;28;20034;-90
2022/12/20 03:33:11;;;;;;;4.35;3.20;;;;;;;14.61;44.78;93948.16;4968412;28;20035;-89
2022/12/20 03:35:36;;;;;;;5.03;3.47;;;;;;;14.62;45.02;93938.78;4955065;28;20498;-90
2022/12/20 03:38:01;;;;;;;4.95;3.63;;;;;;;14.59;45.18;93934.28;4987072;28;20039;-89
2022/12/20 03:40:27;;;;;;;3.58;3.10;;;;;;;14.61;45.15;93918.25;4970780;28;20047;-89
2022/12/20 03:42:52;;;;;;;3.60;2.90;;;;;;;14.63;44.99;93913.06;4979518;28;20038;-89
2022/12/20 03:45:18;;;;;;;4.97;3.42;;;;;;;14.64;45.12;93911.84;4944080;28;20050;-89
2022/12/20 03:47:43;;;;;;;4.15;2.90;;;;;;;14.62;45.27;93910.81;4986791;28;20050;-89
2022/12/20 03:50:09;;;;;;;4.25;3.13;;;;;;;14.60;45.19;93905.84;4970315;28;20085;-89
2022/12/20 03:52:34;;;;;;;4.07;3.33;;;;;;;14.61;45.04;93912.06;4975019;28;20080;-90
2022/12/20 03:55:00;;;;;;;3.33;2.80;;;;;;;14.61;44.99;93912.81;4996021;28;20046;-89
2022/12/20 03:57:25;;;;;;;4.50;3.28;;;;;;;14.61;45.35;93918.25;4984783;28;20050;-89
2022/12/20 03:59:51;;;;;;;3.17;2.65;;;;;;;14.62;44.88;93922.47;4938669;28;20039;-89
2022/12/20 04:02:16;;;;;;;4.15;3.00;;;;;;;14.60;44.88;93924.91;4954260;28;20568;-89
2022/12/20 04:04:41;;;;;;;4.22;3.20;;;;;;;14.63;44.91;93926.69;4975094;28;20057;-89
2022/12/20 04:07:07;;;;;;;3.75;3.05;;;;;;;14.64;45.00;93922.00;4960066;28;20034;-89
2022/12/20 04:09:33;;;;;;;4.35;3.10;;;;;;;14.62;45.25;93938.03;4961722;28;20129;-89
2022/12/20 04:11:58;;;;;;;4.65;3.38;;;;;;;14.62;45.09;93941.50;5013651;28;20046;-89
2022/12/20 04:14:24;;;;;;;3.90;2.80;;;;;;;14.63;44.89;93940.28;4992739;28;20026;-90
2022/12/20 04:16:49;;;;;;;3.88;2.97;;;;;;;14.63;45.02;93939.53;4992934;28;20082;-90
2022/12/20 04:19:14;;;;;;;3.75;3.00;;;;;;;14.69;45.25;93941.13;4975689;28;20088;-89
2022/12/20 04:21:40;;;;;;;3.90;3.10;;;;;;;14.71;44.86;93935.22;4980852;28;20045;-89
2022/12/20 04:24:06;;;;;;;4.03;3.05;;;;;;;14.66;44.74;93936.63;4973173;28;20498;-90
2022/12/20 04:26:31;;;;;;;4.40;3.10;;;;;;;14.63;45.13;93934.84;4999560;28;20042;-89
2022/12/20 04:28:57;;;;;;;4.05;3.13;;;;;;;14.67;44.88;93932.69;4960217;28;20037;-89
2022/12/20 04:31:22;;;;;;;5.13;3.17;;;;;;;14.66;45.42;93933.16;4976289;28;20061;-90
2022/12/20 04:33:47;;;;;;;5.00;3.08;;;;;;;14.67;44.68;93927.25;4977942;28;20041;-89
2022/12/20 04:36:13;;;;;;;3.55;2.85;;;;;;;14.64;45.00;93932.88;5004615;28;20096;-90
2022/12/20 04:38:38;;;;;;;3.88;2.42;;;;;;;14.65;45.17;93928.94;4976601;28;20440;-90
2022/12/20 04:41:04;;;;;;;4.20;3.00;;;;;;;14.67;44.63;93918.31;4975575;28;20175;-89
2022/12/20 04:43:29;;;;;;;4.07;2.83;;;;;;;14.64;45.03;93933.63;4976060;28;20038;-90
2022/12/20 04:45:55;;;;;;;3.90;2.90;;;;;;;14.63;44.82;93937.56;4960680;28;20045;-89
2022/12/20 04:48:20;;;;;;;2.85;2.30;;;;;;;14.66;44.63;93942.06;4974860;28;20045;-89
2022/12/20 04:50:49;;;;;;;3.75;2.92;;;;;;;14.68;45.09;93950.50;4960876;28;20042;-89
2022/12/20 04:55:59;;;;;;;3.88;2.47;;;;;;;14.67;45.09;93938.13;5008334;28;20123;-88
2022/12/20 04:58:24;;;;;;;3.25;2.78;;;;;;;14.68;44.83;93930.72;5011256;28;20121;-88
2022/12/20 05:00:51;;;;;;;3.17;2.33;;;;;;;14.68;45.10;93928.00;5004438;28;20050;-88
2022/12/20 05:03:18;;;;;;;3.72;2.45;;;;;;;14.65;45.01;93926.97;4990353;28;20130;-91
2022/12/20 05:05:43;;;;;;;3.28;2.60;;;;;;;14.63;44.75;93923.97;4988391;28;20432;-90
2022/12/20 05:08:10;;;;;;;4.20;2.90;;;;;;;14.64;44.99;93930.91;4962066;28;20030;-91
2022/12/20 05:10:35;;;;;;;3.22;2.30;;;;;;;14.66;44.96;93933.91;5008457;28;20110;-90
2022/12/20 05:13:01;;;;;;;3.78;2.55;;;;;;;14.64;45.13;93938.31;4957611;28;20062;-90
2022/12/20 05:15:26;;;;;;;3.88;2.50;;;;;;;14.65;44.94;93931.66;5019832;28;20050;-90
2022/12/20 05:17:58;;;;;;;3.10;2.80;;;;;;;14.64;45.30;93922.75;5006258;28;20136;-88
2022/12/20 05:20:24;;;;;;;3.42;2.47;;;;;;;14.65;45.02;93920.75;4992108;28;20834;-88
2022/12/20 05:28:35;;;;;;;12.57;3.00;;;;;;;14.70;44.88;93909.97;4904762;29;20066;-91
2022/12/20 05:31:00;;;;;;;7.50;3.05;;;;;;;14.66;45.43;93898.53;4908252;29;20406;-88
2022/12/20 05:33:26;;;;;;;5.47;4.00;;;;;;;14.76;45.02;93899.13;4890439;29;20463;-89
2022/12/20 05:35:51;;;;;;;6.75;5.90;;;;;;;14.75;44.98;93897.63;4898129;29;20341;-90
2022/12/20 05:38:16;;;;;;;79.80;46.17;;;;;;;14.82;45.19;93899.97;4917087;29;20047;-86
2022/12/20 05:40:42;;;;;;;29.42;19.77;;;;;;;14.90;44.87;93895.63;4898489;29;20043;-90
2022/12/20 05:43:14;;;;;;;13.70;9.93;;;;;;;14.95;45.38;93911.25;4880481;29;20512;-91
2022/12/20 05:45:40;;;;;;;15.57;11.90;;;;;;;14.97;45.28;93891.72;4886575;29;20099;-89
2022/12/20 05:48:06;;;;;;;17.17;12.63;;;;;;;14.97;44.69;93889.00;4917743;29;20130;-93
2022/12/20 05:50:32;;;;;;;28.65;9.93;;;;;;;14.95;44.54;93899.63;4905263;29;20047;-91
2022/12/20 05:52:58;;;;;;;68.85;14.60;;;;;;;15.04;44.62;93899.50;4893837;29;20044;-92
2022/12/20 05:55:31;;;;;;;12.95;6.88;;;;;;;15.02;44.70;93894.53;4905987;29;20047;-92
2022/12/20 05:57:58;;;;;;;31.55;10.55;;;;;;;14.97;44.88;93894.44;4901879;29;20115;-92
2022/12/20 06:00:23;;;;;;;60.10;18.67;;;;;;;14.78;40.37;93888.53;4941659;28;20050;-93
2022/12/20 06:02:51;;;;;;;102.63;28.70;;;;;;;14.69;41.44;93888.66;5029752;28;20753;-92
2022/12/20 06:05:17;;;;;;;89.95;26.70;;;;;;;14.73;41.31;93892.66;5011314;28;20133;-92
2022/12/20 06:07:43;;;;;;;73.57;28.48;;;;;;;14.68;41.40;93893.38;4987481;28;20506;-91
2022/12/20 06:10:10;;;;;;;79.82;35.63;;;;;;;14.70;42.39;93896.38;4983751;28;20061;-92
2022/12/20 06:12:39;;;;;;;87.03;46.67;;;;;;;14.71;43.50;93897.13;4957430;28;20061;-92
2022/12/20 06:15:08;;;;;;;112.47;55.75;;;;;;;14.74;42.54;93899.59;4975963;28;20058;-92
2022/12/20 06:17:34;;;;;;;99.43;47.65;;;;;;;14.68;43.07;93906.97;4987085;28;20046;-92
2022/12/20 06:20:00;;;;;;;95.55;49.85;;;;;;;14.77;42.98;93903.34;4976084;28;20042;-90
2022/12/20 06:22:26;;;;;;;106.43;50.63;;;;;;;14.71;43.23;93905.28;4966695;28;20181;-91
2022/12/20 06:24:53;;;;;;;88.47;43.53;;;;;;;14.73;43.64;93902.81;4981452;28;20061;-89
2022/12/20 06:27:21;;;;;;;100.75;48.45;;;;;;;14.86;43.81;93907.94;4986378;28;20125;-92
2022/12/20 06:29:50;;;;;;;132.07;62.85;;;;;;;14.79;43.96;93911.78;4987304;28;20038;-91
2022/12/20 06:32:17;;;;;;;138.38;70.72;;;;;;;14.80;43.90;93910.56;5006212;28;20050;-89
2022/12/20 06:34:43;;;;;;;161.82;82.22;;;;;;;14.87;43.97;93910.19;4990734;28;20046;-90
2022/12/20 06:37:12;;;;;;;170.75;87.35;;;;;;;14.88;43.94;93925.28;4996478;28;20082;-91
2022/12/20 06:39:39;;;;;;;192.18;88.45;;;;;;;14.87;43.67;93923.78;4985937;28;20054;-90
2022/12/20 06:42:05;;;;;;;170.15;82.63;;;;;;;14.85;43.92;93922.75;5001697;28;20100;-91
2022/12/20 06:44:31;;;;;;;209.52;105.55;;;;;;;14.87;43.99;93920.31;4983189;28;20046;-91
2022/12/20 06:46:57;;;;;;;215.13;109.55;;;;;;;14.89;43.87;93923.31;5018378;28;20035;-90
2022/12/20 06:49:24;;;;;;;191.15;97.95;;;;;;;14.91;43.86;93920.88;5003081;28;20046;-89
2022/12/20 06:51:51;;;;;;;212.40;112.80;;;;;;;14.89;44.09;93909.72;4977123;28;20133;-90
2022/12/20 06:54:17;;;;;;;228.60;110.57;;;;;;;14.91;44.12;93902.56;4969609;28;20042;-91
2022/12/20 06:56:43;;;;;;;215.70;107.20;;;;;;;14.88;43.96;93894.59;4986238;28;20031;-92
2022/12/20 06:59:09;;;;;;;208.10;103.60;;;;;;;14.96;44.04;93890.97;4993978;28;20086;-89
2022/12/20 07:01:35;;;;;;;210.23;105.93;;;;;;;14.99;43.92;93883.84;4979695;28;20047;-92
2022/12/20 07:04:00;;;;;;;210.15;107.53;;;;;;;14.95;43.97;93889.47;4992291;28;20114;-91
2022/12/20 07:06:27;;;;;;;188.18;96.50;;;;;;;14.94;43.34;93895.44;5000708;28;20030;-93
2022/12/20 07:08:53;;;;;;;168.48;90.13;;;;;;;14.99;43.79;93886.56;4986384;28;20486;-88
2022/12/20 07:11:19;;;;;;;185.93;97.25;;;;;;;15.00;44.60;93877.16;5039821;28;20084;-92
2022/12/20 07:13:44;;;;;;;175.57;95.05;;;;;;;15.06;44.39;93886.16;4995120;28;20068;-87
2022/12/20 07:16:12;;;;;;;167.38;88.35;;;;;;;15.07;43.81;93880.22;5028012;28;20041;-94
2022/12/20 07:18:39;;;;;;;159.48;88.95;;;;;;;15.08;43.74;93884.47;5038406;28;20449;-94
2022/12/20 07:21:05;;;;;;;181.20;92.78;;;;;;;15.10;43.97;93873.09;5014237;28;20038;-95
2022/12/20 07:23:31;;;;;;;171.02;90.45;;;;;;;15.05;44.09;93884.66;5032767;28;20049;-93
2022/12/20 07:25:57;;;;;;;159.25;90.32;;;;;;;15.04;44.40;93883.16;5002896;28;20038;-92
2022/12/20 07:28:26;;;;;;;164.75;91.38;;;;;;;15.03;44.62;93887.09;4985510;28;20113;-94
2022/12/20 07:30:59;;;;;;;162.55;91.75;;;;;;;14.99;44.22;93879.13;4996301;28;20042;-94
2022/12/20 07:33:29;;;;;;;164.20;91.85;;;;;;;15.00;44.23;93882.59;4983123;28;20143;-93
2022/12/20 07:36:04;;;;;;;156.10;85.80;;;;;;;15.03;44.33;93893.31;5006041;28;20049;-94
2022/12/20 07:38:39;;;;;;;173.55;99.18;;;;;;;15.00;44.34;93880.63;5000433;28;20080;-93
2022/12/20 07:41:12;;;;;;;153.23;89.28;;;;;;;15.06;44.25;93870.56;5008974;28;20114;-92
2022/12/20 07:43:44;;;;;;;169.95;90.50;;;;;;;15.07;44.09;93874.78;4980271;28;20045;-91
2022/12/20 07:46:10;;;;;;;222.32;119.60;;;;;;;15.06;44.47;93878.00;4994152;28;20500;-89
2022/12/20 07:48:36;;;;;;;157.50;88.80;;;;;;;15.06;44.12;93878.75;4991875;28;20124;-92
2022/12/20 07:51:06;;;;;;;191.02;100.72;;;;;;;15.05;44.53;93869.06;4977411;28;20044;-91
2022/12/20 07:53:34;;;;;;;206.32;114.40;;;;;;;15.12;44.06;93867.16;4975851;28;20520;-92
2022/12/20 07:56:03;;;;;;;205.38;114.95;;;;;;;15.09;44.46;93852.53;4990342;28;20037;-91
2022/12/20 07:58:31;;;;;;;214.10;113.40;;;;;;;15.07;44.64;93855.72;4994887;28;20050;-91
2022/12/20 08:00:57;;;;;;;193.23;109.18;;;;;;;15.05;44.26;93854.72;4958270;28;20099;-89
2022/12/20 08:03:31;;;;;;;209.15;116.80;;;;;;;15.06;44.64;93851.50;4991021;28;20095;-92
2022/12/20 08:05:59;;;;;;;168.43;95.22;;;;;;;15.10;44.27;93856.75;4979082;28;20042;-92
2022/12/20 08:08:35;;;;;;;170.43;97.65;;;;;;;15.05;43.88;93860.91;4983474;28;20042;-95
2022/12/20 08:11:02;;;;;;;94.13;50.95;;;;;;;14.80;39.27;93869.00;4993780;28;20104;-89
2022/12/20 08:13:30;;;;;;;130.18;43.10;;;;;;;14.64;37.97;93862.88;4964599;28;20077;-93
2022/12/20 08:16:00;;;;;;;56.58;25.95;;;;;;;14.51;36.42;93862.44;4971499;28;20459;-94
2022/12/20 08:18:27;;;;;;;70.63;33.87;;;;;;;14.49;37.51;93866.88;5006734;28;20126;-93
2022/12/20 08:20:56;;;;;;;114.57;46.20;;;;;;;14.59;37.95;93869.00;4989618;28;20041;-89
2022/12/20 08:23:24;;;;;;;116.30;53.42;;;;;;;14.68;38.96;93862.69;4987025;28;20035;-89
2022/12/20 08:25:50;;;;;;;124.88;55.47;;;;;;;14.70;39.88;93866.44;5023997;28;20061;-92
2022/12/20 08:28:18;;;;;;;131.98;60.72;;;;;;;14.71;40.95;93867.94;5012376;28;20490;-91
2022/12/20 08:30:44;;;;;;;117.63;52.15;;;;;;;14.81;41.53;93854.91;4995102;28;20034;-91
2022/12/20 08:33:10;;;;;;;216.10;70.47;;;;;;;14.78;42.17;93858.59;4996075;28;20038;-91
2022/12/20 08:35:37;;;;;;;120.22;64.97;;;;;;;14.91;42.52;93856.28;4990853;28;20069;-91
2022/12/20 08:38:04;;;;;;;154.18;73.13;;;;;;;14.84;42.47;93843.09;4972286;28;20042;-90
2022/12/20 08:40:29;;;;;;;125.95;63.55;;;;;;;14.87;42.75;93849.56;4978905;28;20038;-89
2022/12/20 08:42:55;;;;;;;139.45;68.47;;;;;;;14.82;42.87;93850.97;4993683;28;20039;-91
2022/12/20 08:45:22;;;;;;;113.47;61.15;;;;;;;14.87;42.51;93855.00;4973847;28;20133;-91
2022/12/20 08:47:48;;;;;;;118.18;65.45;;;;;;;14.87;42.79;93852.28;4989352;28;20046;-89
2022/12/20 08:50:15;;;;;;;118.53;61.40;;;;;;;14.94;42.68;93852.59;4981456;28;20049;-90
2022/12/20 08:52:41;;;;;;;120.68;59.13;;;;;;;14.86;42.70;93858.94;5004390;28;20042;-88
2022/12/20 08:55:10;;;;;;;110.93;58.45;;;;;;;14.84;42.32;93853.97;4987373;28;20049;-89
2022/12/20 08:57:36;;;;;;;110.57;57.38;;;;;;;14.83;42.21;93854.44;4985037;28;20124;-90
2022/12/20 09:00:03;;;;;;;116.05;57.33;;;;;;;14.88;42.16;93856.50;4998893;28;20065;-90
2022/12/20 09:02:28;;;;;;;124.78;57.45;;;;;;;14.89;42.43;93858.75;4994292;28;20113;-91
2022/12/20 09:04:54;;;;;;;93.45;44.05;;;;;;;14.77;39.77;93864.50;4994916;28;20038;-92
2022/12/20 09:07:19;;;;;;;62.92;33.63;;;;;;;14.60;37.91;93853.41;4986911;28;20049;-91
2022/12/20 09:09:45;;;;;;;56.53;28.67;;;;;;;14.49;37.38;93850.56;4992707;28;20652;-91
2022/12/20 09:12:11;;;;;;;57.55;33.55;;;;;;;14.51;37.80;93854.28;5007759;28;20688;-91
2022/12/20 09:14:36;;;;;;;78.57;40.05;;;;;;;14.57;38.31;93838.03;4994369;28;20121;-90
2022/12/20 09:17:02;;;;;;;100.28;49.08;;;;;;;14.65;38.89;93844.59;4994131;28;20037;-92
2022/12/20 09:19:27;;;;;;;111.03;49.35;;;;;;;14.71;39.62;93831.81;4993696;28;20046;-92
2022/12/20 09:21:54;;;;;;;107.97;53.28;;;;;;;14.75;40.60;93829.59;4978288;28;20034;-91
2022/12/20 09:24:19;;;;;;;84.57;44.30;;;;;;;14.63;38.64;93836.16;4965157;28;20046;-91
2022/12/20 09:26:45;;;;;;;93.25;47.38;;;;;;;14.66;39.03;93830.50;4993956;28;20044;-91
2022/12/20 09:29:10;;;;;;;87.82;45.00;;;;;;;14.79;39.25;93837.56;4976490;28;20042;-92
2022/12/20 09:31:36;;;;;;;111.45;55.35;;;;;;;14.75;40.42;93835.03;5033137;28;20037;-92
2022/12/20 09:34:01;;;;;;;108.65;54.85;;;;;;;14.76;41.13;93842.00;5029535;28;20034;-92
2022/12/20 09:36:28;;;;;;;117.82;58.90;;;;;;;14.72;41.29;93828.56;5003295;28;20065;-90
2022/12/20 09:38:54;;;;;;;115.65;57.72;;;;;;;14.81;41.59;93846.75;4995757;28;20427;-89
2022/12/20 09:41:27;;;;;;;109.35;58.42;;;;;;;14.79;41.94;93837.56;4996032;28;20042;-91
2022/12/20 09:43:54;;;;;;;106.65;56.85;;;;;;;14.80;42.07;93844.50;5015891;28;20030;-90
2022/12/20 09:46:19;;;;;;;144.93;63.67;;;;;;;14.81;41.52;93846.75;5010974;28;20053;-91
2022/12/20 09:48:45;;;;;;;140.45;63.67;;;;;;;14.86;41.63;93845.34;4998724;28;20048;-92
2022/12/20 09:51:40;;;;;;;116.90;60.95;;;;;;;14.93;41.74;93832.06;4973190;28;20058;-92
2022/12/20 09:54:21;;;;;;;144.50;71.80;;;;;;;14.92;41.72;93827.84;5005480;28;20046;-91
2022/12/20 09:57:05;;;;;;;;;;;;;;;14.92;41.63;93825.13;4979751;28;20045;-90
2022/12/20 09:59:34;;;;;;;156.77;83.88;;;;;;;14.88;41.81;93812.94;4957833;28;19925;-90
2022/12/20 10:01:59;;;;;;;163.90;86.05;;;;;;;14.84;42.04;93818.59;4966036;28;20057;-88
2022/12/20 10:04:27;;;;;;;162.30;87.55;;;;;;;14.86;41.63;93818.88;4992648;28;20991;-89
2022/12/20 10:06:55;;;;;;;157.40;82.95;;;;;;;14.87;42.11;93822.34;5000963;28;20041;-91
2022/12/20 10:09:39;;;;;;;161.20;79.72;;;;;;;14.84;42.24;93818.59;4989247;28;20097;-90
2022/12/20 10:12:29;;;;;;;140.73;77.90;;;;;;;14.87;41.95;93819.59;4977931;28;20054;-92
2022/12/20 10:15:20;;;;;;;141.57;76.07;;;;;;;14.92;42.15;93816.97;4973893;28;20050;-92
2022/12/20 10:17:51;;;;;;;;;;;;;;;14.94;42.41;93811.03;4978924;28;20134;-93
2022/12/20 10:20:29;;;;;;;150.00;71.45;;;;;;;14.94;42.46;93811.03;4988996;28;19934;-92
2022/12/20 10:23:16;;;;;;;161.02;81.00;;;;;;;14.91;42.51;93796.41;4952339;28;20086;-90
2022/12/20 10:25:45;;;;;;;163.25;78.18;;;;;;;14.88;42.36;93789.19;4994901;28;20034;-94
2022/12/20 10:28:14;;;;;;;160.40;85.50;;;;;;;14.93;42.10;93793.97;4932950;28;20472;-90
2022/12/20 10:30:40;;;;;;;217.60;96.22;;;;;;;14.94;42.35;93789.25;4960171;28;20093;-91
2022/12/20 10:33:20;;;;;;;190.82;93.20;;;;;;;14.95;42.56;93782.56;4956270;28;20499;-96
2022/12/20 10:35:46;;;;;;;222.90;117.87;;;;;;;14.94;42.61;93776.38;4968648;28;20055;-94
2022/12/20 10:38:21;;;;;;;234.98;123.70;;;;;;;14.91;42.64;93779.31;4974702;28;20047;-92
2022/12/20 10:40:53;;;;;;;231.73;122.28;;;;;;;14.99;42.84;93780.38;4962437;28;20054;-92
2022/12/20 10:43:21;;;;;;;242.90;123.90;;;;;;;14.95;42.59;93786.03;4940859;28;20136;-92
2022/12/20 10:46:06;;;;;;;239.30;123.68;;;;;;;15.00;42.63;93779.16;4931595;29;20104;-96
2022/12/20 10:48:38;;;;;;;240.48;122.80;;;;;;;14.99;42.90;93770.25;4922824;28;20051;-95
2022/12/20 10:51:09;;;;;;;220.32;114.20;;;;;;;14.98;42.95;93768.00;4908324;28;20044;-96
2022/12/20 10:53:50;;;;;;;215.57;114.03;;;;;;;14.95;43.14;93768.97;4959088;28;20050;-94
2022/12/20 10:56:24;;;;;;;210.98;107.90;;;;;;;14.96;43.22;93765.75;4943433;28;20142;-94
2022/12/20 10:58:57;;;;;;;194.77;102.50;;;;;;;15.02;42.97;93757.66;4942225;29;20045;-93
2022/12/20 11:01:30;;;;;;;188.77;97.00;;;;;;;15.02;43.39;93757.66;4957910;28;20243;-94
2022/12/20 11:03:55;;;;;;;167.70;96.72;;;;;;;15.00;43.10;93760.09;4921695;29;20067;-93
2022/12/20 11:06:23;;;;;;;187.75;97.32;;;;;;;14.96;43.39;93749.41;4952522;28;20047;-93
2022/12/20 11:08:48;;;;;;;169.65;91.38;;;;;;;15.02;43.32;93744.78;4937729;29;20126;-93
2022/12/20 11:11:22;;;;;;;182.68;98.75;;;;;;;15.00;43.26;93736.34;4938956;28;20141;-89
2022/12/20 11:13:48;;;;;;;181.57;98.18;;;;;;;14.97;42.82;93734.59;4930788;28;20595;-91
2022/12/20 11:16:34;;;;;;;172.57;90.35;;;;;;;15.06;43.29;93731.72;5000152;28;20602;-90
2022/12/20 11:19:26;;;;;;;173.60;89.50;;;;;;;15.00;43.08;93720.00;5001102;28;20096;-87
2022/12/20 11:22:09;;;;;;;195.18;115.28;;;;;;;15.00;43.80;93714.56;5006467;28;20045;-89
2022/12/20 11:24:48;;;;;;;156.40;84.43;;;;;;;15.01;43.60;93718.03;5030050;28;20045;-87
2022/12/20 11:27:51;;;;;;;150.38;85.10;;;;;;;15.00;43.52;93709.13;5017505;28;20086;-91
2022/12/20 11:30:24;;;;;;;359.83;222.63;;;;;;;15.01;43.74;93704.44;4999907;28;20615;-92
2022/12/20 11:33:02;;;;;;;157.07;84.22;;;;;;;14.99;43.54;93694.03;4999547;28;20049;-91
2022/12/20 11:35:39;;;;;;;157.43;80.25;;;;;;;15.00;43.66;93706.41;5022330;28;20107;-89
2022/12/20 11:38:19;;;;;;;147.15;76.43;;;;;;;15.00;43.47;93695.50;5028923;28;20115;-89